createdAt,value
2023-07-26T00:04:00.825Z,6.9
2023-07-26T00:09:00.752Z,6.8
2023-07-26T00:19:00.753Z,6.9
2023-07-26T00:24:00.747Z,7
2023-07-26T00:29:00.840Z,7
2023-07-26T00:39:00.858Z,7
2023-07-26T00:44:00.833Z,7
2023-07-26T00:54:00.927Z,6.9
2023-07-26T00:59:00.841Z,6.9
2023-07-26T01:24:00.847Z,6.9
2023-07-26T01:29:00.888Z,6.8
2023-07-26T01:39:00.857Z,6.8
2023-07-26T01:44:00.927Z,6.8
2023-07-26T01:54:00.919Z,6.9
2023-07-26T01:59:00.955Z,6.8
2023-07-26T02:09:00.915Z,6.8
2023-07-26T02:14:00.976Z,6.8
2023-07-26T02:24:00.942Z,6.9
2023-07-26T02:44:01.009Z,6.9
2023-07-26T02:54:01.024Z,6.9
2023-07-26T02:59:01.109Z,6.9
2023-07-26T03:09:01.032Z,6.9
2023-07-26T03:14:01.119Z,6.9
2023-07-26T03:24:01.114Z,7
2023-07-26T03:29:01.187Z,7
2023-07-26T03:39:01.081Z,7
2023-07-26T03:44:01.157Z,7
2023-07-26T03:59:01.226Z,7
2023-07-26T04:09:01.162Z,7
2023-07-26T04:14:01.217Z,7
2023-07-26T04:19:01.213Z,7
2023-07-26T04:24:01.220Z,7
2023-07-26T04:29:01.269Z,7
2023-07-26T04:39:01.253Z,7.1
2023-07-26T04:44:01.352Z,7.1
2023-07-26T04:54:03.678Z,7.1
2023-07-26T04:59:01.515Z,7.1
2023-07-26T05:19:01.341Z,7.1
2023-07-26T05:24:01.347Z,7.1
2023-07-26T05:29:01.404Z,7.1
2023-07-26T05:39:01.365Z,7.1
2023-07-26T05:44:01.450Z,7.1
2023-07-26T05:54:01.437Z,7
2023-07-26T05:59:01.441Z,7.1
2023-07-26T06:09:01.420Z,7.1
2023-07-26T06:14:01.515Z,7.1
2023-07-26T06:39:01.486Z,7
2023-07-26T06:44:01.557Z,7.1
2023-07-26T06:54:01.518Z,7
2023-07-26T06:59:01.569Z,7
2023-07-26T07:14:01.623Z,7
2023-07-26T07:24:01.561Z,7
2023-07-26T07:29:01.918Z,7
2023-07-26T07:39:01.592Z,6.9
2023-07-26T07:59:01.687Z,6.7
2023-07-26T08:09:01.677Z,6.7
2023-07-26T08:14:01.737Z,6.7
2023-07-26T08:24:01.707Z,6.7
2023-07-26T08:29:01.768Z,6.9
2023-07-26T08:44:01.807Z,7
2023-07-26T08:54:01.753Z,7.1
2023-07-26T08:59:01.944Z,6.9
2023-07-26T09:19:01.832Z,6.7
2023-07-26T09:24:01.853Z,6.5
2023-07-26T09:29:01.891Z,6.7
2023-07-26T09:34:01.888Z,7.2
2023-07-26T09:39:01.895Z,7.4
2023-07-26T09:44:01.929Z,7.4
2023-07-26T09:54:03.377Z,7.7
2023-07-26T09:59:01.976Z,7.7
2023-07-26T10:09:01.979Z,7.4
2023-07-26T10:14:02.045Z,7.2
2023-07-26T10:39:02.051Z,6.9
2023-07-26T10:44:02.069Z,7
2023-07-26T10:54:02.115Z,6.9
2023-07-26T10:59:02.079Z,6.9
2023-07-26T11:09:02.039Z,6.5
2023-07-26T11:14:02.093Z,6.3
2023-07-26T11:19:02.125Z,6.2
2023-07-26T11:29:02.077Z,6.4
2023-07-26T11:34:02.072Z,6.3
2023-07-26T11:39:02.354Z,6.5
2023-07-26T11:59:02.229Z,6.3
2023-07-26T12:14:02.481Z,6.2
2023-07-26T12:24:03.606Z,6.1
2023-07-26T12:29:02.258Z,6.1
2023-07-26T12:44:02.218Z,6.1
2023-07-26T12:54:02.185Z,6.3
2023-07-26T12:59:08.031Z,6.2
2023-07-26T13:14:02.358Z,6.5
2023-07-26T13:24:02.262Z,6.7
2023-07-26T13:29:02.423Z,6.6
2023-07-26T13:44:02.352Z,6.2
2023-07-26T13:54:02.280Z,6.2
2023-07-26T13:59:02.385Z,6.3
2023-07-26T14:14:02.366Z,6.3
2023-07-26T14:39:02.363Z,6.3
2023-07-26T14:44:02.696Z,6.4
2023-07-26T14:54:02.398Z,6.1
2023-07-26T14:59:02.548Z,6.4
2023-07-26T15:09:02.461Z,6.2
2023-07-26T15:14:02.513Z,6.3
2023-07-26T15:24:02.459Z,6.3
2023-07-26T15:29:02.520Z,6.3
2023-07-26T15:34:02.653Z,6.3
2023-07-26T15:54:02.508Z,6.4
2023-07-26T15:59:02.532Z,6.2
2023-07-26T16:04:03.360Z,6.4
2023-07-26T16:24:03.511Z,6.3
2023-07-26T16:29:02.573Z,6.3
2023-07-26T16:34:02.544Z,6.2
2023-07-26T16:44:02.597Z,6.4
2023-07-26T16:54:02.583Z,6.4
2023-07-26T17:14:02.625Z,6.2
2023-07-26T17:19:02.632Z,6.4
2023-07-26T17:29:02.647Z,6.4
2023-07-26T17:34:02.653Z,6.6
2023-07-26T17:49:02.679Z,6.6
2023-07-26T17:59:02.648Z,6.8
2023-07-26T18:04:02.708Z,7
2023-07-26T18:14:02.710Z,6.9
2023-07-26T18:34:02.693Z,6.4
2023-07-26T18:44:02.693Z,6.8
2023-07-26T18:49:02.943Z,6.9
2023-07-26T18:59:02.736Z,6.5
2023-07-26T19:19:02.736Z,6.1
2023-07-26T19:29:02.739Z,6.2
2023-07-26T19:34:02.712Z,6.5
2023-07-26T19:54:02.729Z,6.2
2023-07-26T20:14:02.810Z,6.3
2023-07-26T20:24:02.828Z,6.5
2023-07-26T20:34:02.773Z,6.3
2023-07-26T20:39:02.824Z,6.4
2023-07-26T20:44:02.902Z,6.3
2023-07-26T20:49:02.889Z,6.4
2023-07-26T21:09:02.904Z,6.3
2023-07-26T21:14:02.920Z,6.1
2023-07-26T21:19:02.937Z,6.2
2023-07-26T21:24:02.930Z,6.3
2023-07-26T21:29:02.967Z,6.3
2023-07-26T21:34:03.010Z,6.3
2023-07-26T21:44:02.993Z,6.3
2023-07-26T21:49:03.066Z,6.3
2023-07-26T21:59:03.023Z,6.3
2023-07-26T22:04:03.250Z,6.3
2023-07-26T22:29:03.142Z,6.3
2023-07-26T22:44:03.108Z,6.3
2023-07-26T22:54:03.096Z,6.3
2023-07-26T22:59:03.095Z,6.3
2023-07-26T23:04:03.204Z,6.3
2023-07-26T23:09:03.191Z,6.3
2023-07-26T23:14:03.148Z,6.3
2023-07-26T23:24:03.145Z,6.3
2023-07-26T23:29:03.172Z,6.3
2023-07-26T23:49:03.184Z,6.4
2023-07-26T23:54:03.229Z,6.3
2023-07-26T23:59:03.282Z,6.3
